Time;durP1;ratioP1;P1;durP2;ratioP2;P2;SDS_P1;SDS_P2;PMS_P1;PMS_P2;Temp;Humidity;BMP_temperature;BMP_pressure;BME280_temperature;BME280_humidity;BME280_pressure;Samples;Min_cycle;Max_cycle;Signal;HPM_P1;HPM_P2
2023/11/19 00:22:42;;;;;;;;;;;;;;;;;;;;;
2023/11/19 00:33:05;;;;;;;;;;;;;;;;;;;;;
2023/11/19 00:48:59;;;;;;;;;;;;;;;;;;;;;
2023/11/19 01:02:40;;;;;;;;;;;;;;;;;;;;;
2023/11/19 01:25:45;;;;;;;;;;;;;;;;;;;;;
2023/11/19 01:50:16;;;;;;;;;;;;;;;;;;;;;
2023/11/19 01:53:34;;;;;;;;;;;;;;;;;;;;;
2023/11/19 02:13:42;;;;;;;;;;;;;;;;;;;;;
2023/11/19 02:16:49;;;;;;;;;;;;;;;;;;;;;
2023/11/19 02:37:33;;;;;;;;;;;;;;;;;;;;;
2023/11/19 02:50:47;;;;;;;;;;;;;;;;;;;;;
2023/11/19 03:14:55;;;;;;;;;;;;;;;;;;;;;
2023/11/19 03:18:20;;;;;;;;;;;;;;;;;;;;;
2023/11/19 03:34:15;;;;;;;;;;;;;;;;;;;;;
2023/11/19 03:41:06;;;;;;;;;;;;;;;;;;;;;
2023/11/19 03:54:45;;;;;;;;;;;;;;;;;;;;;
2023/11/19 04:04:51;;;;;;;;;;;;;;;;;;;;;
2023/11/19 04:13:32;;;;;;;;;;;;;;;;;;;;;
2023/11/19 04:16:28;;;;;;;;;;;;;;;;;;;;;
2023/11/19 04:19:26;;;;;;;;;;;;;;;;;;;;;
2023/11/19 04:25:36;;;;;;;;;;;;;;;;;;;;;
2023/11/19 04:32:10;;;;;;;;;;;;;;;;;;;;;
2023/11/19 04:34:42;;;;;;;;;0.00;0.00;;;;;17.41;100.00;101203.19;5007460;28;45545;-91
2023/11/19 04:38:01;;;;;;;;;;;;;;;;;;;;;
2023/11/19 04:40:46;;;;;;;;;;;;;;;;;;;;;
2023/11/19 04:43:26;;;;;;;;;0.00;0.00;;;;;17.32;100.00;101208.91;5019851;28;72238;-93
2023/11/19 04:47:03;;;;;;;;;;;;;;;;;;;;;
2023/11/19 04:50:02;;;;;;;;;;;;;;;;;;;;;
2023/11/19 04:56:39;;;;;;;;;;;;;;;;;;;;;
2023/11/19 04:59:41;;;;;;;;;;;;;;;;;;;;;
2023/11/19 05:15:29;;;;;;;;;;;;;;;;;;;;;
2023/11/19 05:32:17;;;;;;;;;;;;;;;;;;;;;
2023/11/19 05:35:15;;;;;;;;;;;;;;;;;;;;;
2023/11/19 05:38:31;;;;;;;;;;;;;;;;;;;;;
2023/11/19 05:41:29;;;;;;;;;;;;;;;;;;;;;
2023/11/19 05:44:33;;;;;;;;;;;;;;;;;;;;;
2023/11/19 05:47:51;;;;;;;;;;;;;;;;;;;;;
2023/11/19 05:51:28;;;;;;;;;;;;;;;;;;;;;
2023/11/19 06:01:31;;;;;;;;;0.00;0.00;;;;;16.82;100.00;101239.31;4902076;29;45377;-93
2023/11/19 06:07:57;;;;;;;;;;;;;;;;;;;;;
2023/11/19 06:27:36;;;;;;;;;;;;;;;;;;;;;
2023/11/19 06:30:55;;;;;;;;;;;;;;;;;;;;;
2023/11/19 06:37:22;;;;;;;;;;;;;;;;;;;;;
2023/11/19 06:40:38;;;;;;;;;;;;;;;;;;;;;
2023/11/19 06:44:15;;;;;;;;;;;;;;;;;;;;;
2023/11/19 07:03:25;;;;;;;;;;;;;;;;;;;;;
2023/11/19 07:09:54;;;;;;;;;;;;;;;;;;;;;
2023/11/19 07:22:26;;;;;;;;;;;;;;;;;;;;;
2023/11/19 07:35:06;;;;;;;;;0.00;0.00;;;;;16.04;100.00;101285.72;5010491;28;45296;-93
2023/11/19 07:41:35;;;;;;;;;;;;;;;;;;;;;
2023/11/19 07:44:54;;;;;;;;;;;;;;;;;;;;;
2023/11/19 07:53:41;;;;;;;;;;;;;;;;;;;;;
2023/11/19 07:56:27;;;;;;;;;0.00;0.00;;;;;16.28;100.00;101304.81;4921345;28;73905;-88
2023/11/19 07:58:52;;;;;;;;;1.00;1.00;;;;;16.30;100.00;101325.78;4918265;28;45400;-92
2023/11/19 08:01:18;;;;;;;;;0.00;0.00;;;;;16.36;100.00;101318.50;4902310;28;45554;-92
2023/11/19 08:03:43;;;;;;;;;0.00;0.00;;;;;16.34;100.00;101317.69;4918473;28;47939;-93
2023/11/19 08:06:09;;;;;;;;;1.00;0.00;;;;;16.37;100.00;101314.09;4918886;28;45366;-93
2023/11/19 08:08:34;;;;;;;;;0.00;0.00;;;;;16.34;100.00;101314.22;4903225;28;45298;-91
2023/11/19 08:11:00;;;;;;;;;0.00;0.00;;;;;16.37;100.00;101325.44;4899672;29;45286;-93
2023/11/19 08:13:25;;;;;;;;;0.00;0.00;;;;;16.44;100.00;101323.41;4885268;29;47149;-94
2023/11/19 08:15:51;;;;;;;;;0.00;0.00;;;;;16.37;100.00;101335.94;4898865;29;45371;-93
2023/11/19 08:18:18;;;;;;;;;0.00;0.00;;;;;16.29;100.00;101324.06;4869213;29;45371;-96
2023/11/19 08:21:00;;;;;;;;;0.00;0.00;;;;;16.34;100.00;101322.94;4924777;28;45323;-96
2023/11/19 08:23:26;;;;;;;;;0.00;0.00;;;;;16.32;100.00;101329.19;4923891;28;45283;-89
2023/11/19 08:25:52;;;;;;;;;0.00;0.00;;;;;16.41;100.00;101321.75;4900136;28;46034;-91
2023/11/19 08:28:23;;;;;;;;;0.00;0.00;;;;;16.31;100.00;101333.59;4947260;28;45476;-90
2023/11/19 08:30:53;;;;;;;;;0.00;0.00;;;;;16.35;100.00;101329.06;5072492;28;45256;-90
2023/11/19 08:33:19;;;;;;;;;0.00;0.00;;;;;16.30;100.00;101328.41;5111976;27;45333;-92
2023/11/19 08:35:45;;;;;;;;;0.00;0.00;;;;;16.26;100.00;101341.66;5043537;28;45276;-90
2023/11/19 08:38:10;;;;;;;;;0.00;0.00;;;;;16.31;100.00;101327.50;5043162;28;45316;-89
2023/11/19 08:40:35;;;;;;;;;0.00;0.00;;;;;16.41;100.00;101328.78;5076633;28;45356;-84
2023/11/19 08:43:01;;;;;;;;;0.00;0.00;;;;;16.47;100.00;101338.16;5075240;28;46199;-85
2023/11/19 08:45:26;;;;;;;;;0.00;0.00;;;;;16.38;100.00;101355.19;5075380;28;73044;-84
2023/11/19 08:47:51;;;;;;;;;0.00;0.00;;;;;16.50;100.00;101345.94;5039862;28;68248;-85
2023/11/19 08:50:17;;;;;;;;;0.00;0.00;;;;;16.63;100.00;101340.03;5062522;28;47431;-93
2023/11/19 08:52:42;;;;;;;;;0.00;0.00;;;;;16.70;100.00;101345.91;5062090;28;57177;-91
2023/11/19 08:55:09;;;;;;;;;0.00;0.00;;;;;16.70;100.00;101372.19;5062279;28;45703;-92
2023/11/19 08:57:35;;;;;;;;;0.00;0.00;;;;;16.78;100.00;101367.41;5080241;28;45454;-87
2023/11/19 09:00:00;;;;;;;;;0.00;0.00;;;;;16.87;100.00;101379.34;5059776;28;45284;-93
2023/11/19 09:02:26;;;;;;;;;0.00;0.00;;;;;16.96;100.00;101378.94;5068009;27;46102;-91
2023/11/19 09:04:51;;;;;;;;;0.00;0.00;;;;;17.02;100.00;101378.63;5099946;27;45357;-91
2023/11/19 09:07:16;;;;;;;;;0.00;0.00;;;;;17.07;100.00;101388.97;5082516;27;51541;-90
2023/11/19 09:09:42;;;;;;;;;0.00;0.00;;;;;17.11;100.00;101384.41;5099688;27;68127;-89
2023/11/19 09:12:07;;;;;;;;;0.00;0.00;;;;;17.19;100.00;101379.63;5095014;27;68011;-90
2023/11/19 09:14:32;;;;;;;;;0.00;0.00;;;;;17.11;100.00;101377.38;5112935;27;53472;-90
2023/11/19 09:16:58;;;;;;;;;0.00;0.00;;;;;17.05;100.00;101382.91;5124839;27;69507;-88
2023/11/19 09:19:24;;;;;;;;;0.00;0.00;;;;;16.98;100.00;101392.00;5100022;27;45336;-90
2023/11/19 09:21:49;;;;;;;;;0.00;0.00;;;;;16.92;100.00;101382.63;5098765;27;48137;-90
2023/11/19 09:24:15;;;;;;;;;0.00;0.00;;;;;16.96;100.00;101378.09;5100609;27;45386;-88
2023/11/19 09:26:41;;;;;;;;;0.00;0.00;;;;;16.95;100.00;101379.84;5099959;27;45325;-88
2023/11/19 09:29:07;;;;;;;;;0.00;0.00;;;;;16.96;100.00;101380.72;5099115;27;45644;-87
2023/11/19 09:31:33;;;;;;;;;0.00;0.00;;;;;17.09;100.00;101373.97;5097729;27;47594;-86
2023/11/19 09:33:58;;;;;;;;;0.00;0.00;;;;;17.11;100.00;101372.09;5098110;27;66595;-85
2023/11/19 09:36:24;;;;;;;;;0.00;0.00;;;;;17.10;100.00;101369.53;5097832;27;67980;-87
2023/11/19 09:38:49;;;;;;;;;0.00;0.00;;;;;17.18;100.00;101386.69;5101519;27;60000;-86
2023/11/19 09:41:15;;;;;;;;;0.00;0.00;;;;;17.20;100.00;101379.56;5103882;27;73169;-86
2023/11/19 09:43:41;;;;;;;;;0.00;0.00;;;;;17.26;100.00;101373.16;5104805;27;67272;-86
2023/11/19 09:46:11;;;;;;;;;0.00;0.00;;;;;17.28;100.00;101370.47;5104862;27;45413;-87
2023/11/19 09:48:37;;;;;;;;;0.00;0.00;;;;;17.27;100.00;101374.84;5102760;27;45430;-86
2023/11/19 09:51:07;;;;;;;;;0.00;0.00;;;;;17.28;100.00;101370.47;5098698;27;45512;-85
2023/11/19 09:53:33;;;;;;;;;0.00;0.00;;;;;17.35;100.00;101367.47;5131801;27;45568;-86
2023/11/19 09:56:05;;;;;;;;;0.00;0.00;;;;;17.42;100.00;101376.78;5097175;27;45493;-85
2023/11/19 09:58:31;;;;;;;;;0.00;0.00;;;;;17.34;100.00;101375.44;5081990;27;45459;-85
2023/11/19 10:01:00;;;;;;;;;0.00;0.00;;;;;17.44;100.00;101383.75;5082498;27;47095;-85
2023/11/19 10:03:46;;;;;;;;;0.00;0.00;;;;;17.45;100.00;101383.69;5080512;27;45714;-85
2023/11/19 10:06:12;;;;;;;;;0.00;0.00;;;;;17.46;100.00;101376.63;5114280;27;45405;-85
2023/11/19 10:08:41;;;;;;;;;0.00;0.00;;;;;17.47;100.00;101389.72;5096665;27;69084;-85
2023/11/19 10:11:07;;;;;;;;;0.00;0.00;;;;;17.46;100.00;101385.41;5098248;27;47306;-86
2023/11/19 10:13:37;;;;;;;;;0.00;0.00;;;;;17.54;100.00;101372.72;5113824;27;45370;-84
2023/11/19 10:16:06;;;;;;;;;0.00;0.00;;;;;17.62;100.00;101369.69;5103964;27;45338;-85
2023/11/19 10:18:37;;;;;;;;;0.00;0.00;;;;;17.59;100.00;101397.03;5097127;27;45353;-85
2023/11/19 10:21:03;;;;;;;;;0.00;0.00;;;;;17.76;100.00;101382.22;5125718;27;47088;-87
2023/11/19 10:23:28;;;;;;;;;0.00;0.00;;;;;17.88;100.00;101376.34;5086642;27;45306;-85
2023/11/19 10:25:54;;;;;;;;;0.00;0.00;;;;;18.02;100.00;101359.03;5097215;27;69155;-86
2023/11/19 10:28:19;;;;;;;;;0.00;0.00;;;;;18.05;100.00;101375.50;5097184;27;63974;-86
2023/11/19 10:30:44;;;;;;;;;0.00;0.00;;;;;18.21;100.00;101366.84;5098142;27;47057;-86
2023/11/19 10:33:19;;;;;;;;;0.00;0.00;;;;;18.37;100.00;101373.06;5095890;27;73909;-86
2023/11/19 10:35:58;;;;;;;;;0.00;0.00;;;;;18.45;100.00;101385.84;5097959;27;45278;-85
2023/11/19 10:38:24;;;;;;;;;0.00;0.00;;;;;18.47;100.00;101369.00;5096756;27;45567;-86
2023/11/19 10:40:51;;;;;;;;;0.00;0.00;;;;;18.52;100.00;101382.78;5096965;27;45579;-85
2023/11/19 10:43:19;;;;;;;;;0.00;0.00;;;;;18.83;100.00;101364.53;5097587;27;45385;-86
2023/11/19 10:45:45;;;;;;;;;0.00;0.00;;;;;18.11;100.00;101377.84;5096618;27;45316;-85
2023/11/19 10:48:12;;;;;;;;;0.00;0.00;;;;;18.18;100.00;101374.00;5095635;27;64379;-85
2023/11/19 10:50:39;;;;;;;;;0.00;0.00;;;;;18.26;100.00;101370.13;5096455;27;46645;-88
2023/11/19 10:53:06;;;;;;;;;0.00;0.00;;;;;18.07;100.00;101397.38;5097339;27;45359;-86
2023/11/19 10:55:36;;;;;;;;;0.00;0.00;;;;;18.61;100.00;101375.31;5129699;27;45469;-86
2023/11/19 10:58:06;;;;;;;;;0.00;0.00;;;;;18.83;100.00;101364.53;5097079;27;45444;-89
2023/11/19 11:00:51;;;;;;;;;0.00;0.00;;;;;18.79;100.00;101355.03;5097430;27;46786;-86
2023/11/19 11:03:19;;;;;;;;;0.00;0.00;;;;;19.20;100.00;101362.53;5082970;27;45461;-85
2023/11/19 11:05:54;;;;;;;;;0.00;0.00;;;;;19.62;100.00;101367.19;5077253;28;45281;-85
2023/11/19 11:08:20;;;;;;;;;0.00;0.00;;;;;21.90;100.00;101360.31;5058904;28;45308;-87
2023/11/19 11:10:50;;;;;;;;;0.00;0.00;;;;;23.17;100.00;101355.97;5052964;27;47046;-84
2023/11/19 11:13:17;;;;;;;;;0.00;0.00;;;;;24.50;100.00;101339.78;5072040;28;45414;-85
2023/11/19 11:15:42;;;;;;;;;0.00;0.00;;;;;24.98;100.00;101352.03;5059068;28;45399;-86
2023/11/19 11:18:08;;;;;;;;;0.00;0.00;;;;;24.81;100.00;101381.78;5077662;27;45475;-85
2023/11/19 11:20:34;;;;;;;;;0.00;0.00;;;;;25.47;100.00;101348.03;5046580;27;47730;-84
2023/11/19 11:23:21;;;;;;;;;0.00;0.00;;;;;25.44;100.00;101379.44;5071638;28;71445;-88
2023/11/19 11:26:19;;;;;;;;;0.00;0.00;;;;;26.20;100.00;101382.88;5076693;28;46109;-81
2023/11/19 11:28:57;;;;;;;;;0.00;0.00;;;;;26.90;100.00;101376.94;5075400;27;45607;-82
2023/11/19 11:31:37;;;;;;;;;0.00;0.00;;;;;27.14;100.00;101353.38;5081854;27;45422;-82
2023/11/19 11:34:03;;;;;;;;;0.00;0.00;;;;;27.50;100.00;101348.38;5056036;28;45491;-83
2023/11/19 11:36:31;;;;;;;;;0.00;0.00;;;;;27.72;100.00;101373.16;5076292;27;45608;-81
2023/11/19 11:39:00;;;;;;;;;0.00;0.00;;;;;28.72;100.00;101339.72;5073491;28;45637;-81
2023/11/19 11:41:25;;;;;;;;;0.00;0.00;;;;;28.86;100.00;101357.13;5090737;27;45358;-82
2023/11/19 11:43:55;;;;;;;;;0.00;0.00;;;;;28.60;100.00;101365.84;5060798;27;45633;-82
2023/11/19 11:46:32;;;;;;;;;0.00;0.00;;;;;28.76;100.00;101347.31;5079601;27;45497;-84
2023/11/19 11:49:00;;;;;;;;;0.00;0.00;;;;;29.04;100.00;101355.34;5076199;28;45450;-83
2023/11/19 11:51:44;;;;;;;;;18.00;16.00;;;;;28.95;100.00;101377.66;5065431;28;47160;-82
2023/11/19 11:54:10;;;;;;;;;0.00;0.00;;;;;28.31;100.00;101377.47;5076351;28;45576;-81
2023/11/19 11:56:38;;;;;;;;;0.00;0.00;;;;;28.67;100.00;101369.63;5076215;28;45410;-82
2023/11/19 11:59:07;;;;;;;;;0.00;0.00;;;;;29.17;100.00;101354.16;5057717;28;45511;-82
2023/11/19 12:01:33;;;;;;;;;0.00;0.00;;;;;29.03;100.00;101377.78;5076904;27;46321;-81
2023/11/19 12:03:58;;;;;;;;;0.00;0.00;;;;;28.30;100.00;101381.13;5095039;27;68206;-82
2023/11/19 12:06:24;;;;;;;;;0.00;0.00;;;;;27.35;100.00;101374.66;5094289;27;65486;-81
2023/11/19 12:08:49;;;;;;;;;0.00;0.00;;;;;27.15;100.00;101362.22;5096628;27;45202;-81
2023/11/19 12:11:16;;;;;;;;;0.00;0.00;;;;;26.80;100.00;101371.53;5094480;27;47246;-81
2023/11/19 12:13:56;;;;;;;;;0.00;0.00;;;;;25.96;100.00;101376.94;5095537;27;45417;-82
2023/11/19 12:16:22;;;;;;;;;0.00;0.00;;;;;25.60;100.00;101365.69;5095656;27;45356;-81
2023/11/19 12:18:47;;;;;;;;;0.00;0.00;;;;;25.20;100.00;101353.78;5094335;27;70418;-81
2023/11/19 12:21:28;;;;;;;;;0.00;0.00;;;;;24.20;100.00;101376.72;5094452;27;75486;-81
2023/11/19 12:23:54;;;;;;;;;0.00;0.00;;;;;23.85;100.00;101370.47;5096823;27;45394;-80
2023/11/19 12:26:33;;;;;;;;;0.00;0.00;;;;;25.89;100.00;101332.09;5098367;27;65273;-81
2023/11/19 12:28:59;;;;;;;;;0.00;0.00;;;;;27.40;100.00;101328.81;5098208;27;45429;-79
2023/11/19 12:31:24;;;;;;;;;0.00;0.00;;;;;28.16;100.00;101349.47;5098781;27;46200;-80
2023/11/19 12:33:51;;;;;;;;;0.00;0.00;;;;;28.84;100.00;101356.44;5098172;27;69527;-81
2023/11/19 12:36:17;;;;;;;;;0.00;0.00;;;;;28.77;100.00;101340.13;5097524;27;45497;-81
2023/11/19 12:38:45;;;;;;;;;0.00;0.00;;;;;28.65;100.00;101352.03;5097858;27;45330;-81
2023/11/19 12:41:11;;;;;;;;;0.00;0.00;;;;;27.96;100.00;101346.84;5098723;27;45515;-80
2023/11/19 12:43:37;;;;;;;;;0.00;0.00;;;;;27.16;100.00;101359.41;5098649;27;45338;-79
2023/11/19 12:46:16;;;;;;;;;0.00;0.00;;;;;27.78;100.00;101353.84;5127615;27;45349;-81
2023/11/19 12:48:42;;;;;;;;;0.00;0.00;;;;;29.46;100.00;101362.00;5078625;28;45421;-80
2023/11/19 12:51:07;;;;;;;;;0.00;0.00;;;;;30.84;100.00;101338.97;5078171;28;46203;-80
2023/11/19 12:53:50;;;;;;;;;0.00;0.00;;;;;31.88;100.00;101347.56;5123824;27;45932;-81
2023/11/19 12:56:15;;;;;;;;;0.00;0.00;;;;;30.98;90.99;101356.31;5099458;27;45485;-80
2023/11/19 12:58:42;;;;;;;;;0.00;0.00;;;;;30.10;100.00;101366.22;5098564;27;45490;-81
2023/11/19 13:01:09;;;;;;;;;0.00;0.00;;;;;30.74;100.00;101332.84;5098434;27;46449;-82
2023/11/19 13:03:38;;;;;;;;;0.00;0.00;;;;;30.69;100.00;101336.03;5131554;27;45390;-81
2023/11/19 13:06:05;;;;;;;;;0.00;0.00;;;;;28.88;100.00;101360.50;5099197;27;45323;-83
2023/11/19 13:08:55;;;;;;;;;0.00;0.00;;;;;26.82;100.00;101358.94;5098982;27;45219;-84
2023/11/19 13:11:33;;;;;;;;;0.00;0.00;;;;;25.15;100.00;101350.66;5098843;27;45469;-83
2023/11/19 13:14:01;;;;;;;;;0.00;0.00;;;;;24.00;100.00;101349.88;5098872;27;45286;-83
2023/11/19 13:16:27;;;;;;;;;0.00;0.00;;;;;23.14;100.00;101346.44;5098234;27;45406;-84
2023/11/19 13:18:53;;;;;;;;;0.00;0.00;;;;;22.37;100.00;101341.19;5098527;27;45350;-83
2023/11/19 13:21:18;;;;;;;;;0.00;0.00;;;;;21.65;100.00;101368.06;5098788;27;45505;-83
2023/11/19 13:23:44;;;;;;;;;0.00;0.00;;;;;22.09;100.00;101350.16;5098371;27;64587;-82
2023/11/19 13:26:10;;;;;;;;;0.00;0.00;;;;;24.30;100.00;101336.00;5102222;27;45542;-82
2023/11/19 13:28:36;;;;;;;;;0.00;0.00;;;;;24.22;100.00;101357.06;5132104;27;45726;-82
2023/11/19 13:31:02;;;;;;;;;1.00;0.00;;;;;24.59;100.00;101351.56;5101526;27;45616;-83
2023/11/19 13:33:27;;;;;;;;;0.00;0.00;;;;;25.71;100.00;101352.31;5105264;27;45418;-82
2023/11/19 13:35:53;;;;;;;;;0.00;0.00;;;;;26.43;100.00;101354.22;5101240;27;54270;-82
2023/11/19 13:38:18;;;;;;;;;0.00;0.00;;;;;26.81;100.00;101341.19;5109016;27;69884;-81
2023/11/19 13:40:43;;;;;;;;;0.00;0.00;;;;;26.78;100.00;101338.78;5118232;27;70379;-82
2023/11/19 13:43:09;;;;;;;;;0.00;0.00;;;;;26.40;100.00;101332.28;5100123;27;55938;-81
2023/11/19 13:45:34;;;;;;;;;0.00;0.00;;;;;26.38;100.00;101340.44;5097288;27;69262;-81
2023/11/19 13:47:59;;;;;;;;;0.00;0.00;;;;;25.99;100.00;101334.88;5096531;27;45283;-80
2023/11/19 13:50:25;;;;;;;;;0.00;0.00;;;;;25.60;100.00;101323.88;5118115;27;72904;-80
2023/11/19 13:52:51;;;;;;;;;0.00;0.00;;;;;25.57;100.00;101318.78;5119073;27;45400;-80
2023/11/19 13:55:16;;;;;;;;;0.00;0.00;;;;;25.63;100.00;101323.63;5101474;27;45466;-80
2023/11/19 13:57:42;;;;;;;;;0.00;0.00;;;;;25.78;100.00;101342.84;5098423;27;45270;-80
2023/11/19 14:00:18;;;;;;;;;0.00;0.00;;;;;25.62;97.33;101342.41;5097033;27;45337;-79
2023/11/19 14:02:46;;;;;;;;;0.00;0.00;;;;;24.72;93.49;101344.28;5098180;27;45406;-80
2023/11/19 14:05:12;;;;;;;;;0.00;0.00;;;;;24.09;100.00;101317.25;5097401;27;45485;-80
2023/11/19 14:07:38;;;;;;;;;0.00;0.00;;;;;23.27;100.00;101319.84;5098400;27;45457;-80
2023/11/19 14:10:05;;;;;;;;;0.00;0.00;;;;;22.60;100.00;101323.69;5098095;27;46558;-81
2023/11/19 14:12:31;;;;;;;;;0.00;0.00;;;;;21.99;100.00;101326.09;5109194;27;45425;-81
2023/11/19 14:14:57;;;;;;;;;0.00;0.00;;;;;21.77;100.00;101283.47;5102057;27;45419;-80
2023/11/19 14:17:22;;;;;;;;;0.00;0.00;;;;;21.46;100.00;101304.03;5097557;27;59159;-81
2023/11/19 14:19:48;;;;;;;;;0.00;0.00;;;;;21.24;100.00;101308.03;5097443;27;46228;-81
2023/11/19 14:22:13;;;;;;;;;0.00;0.00;;;;;21.04;100.00;101313.75;5097457;27;45575;-81
2023/11/19 14:24:40;;;;;;;;;0.00;0.00;;;;;20.78;100.00;101333.94;5097632;27;45571;-80
2023/11/19 14:27:06;;;;;;;;;0.00;0.00;;;;;20.67;100.00;101318.72;5095233;27;45478;-80
2023/11/19 14:29:31;;;;;;;;;0.00;0.00;;;;;20.54;100.00;101316.00;5096953;27;64376;-81
2023/11/19 14:31:57;;;;;;;;;0.00;0.00;;;;;20.45;100.00;101295.41;5097861;27;45368;-81
2023/11/19 14:34:22;;;;;;;;;2.00;0.00;;;;;20.30;100.00;101313.91;5097640;27;45484;-79
2023/11/19 14:36:48;;;;;;;;;0.00;0.00;;;;;20.23;100.00;101311.72;5098209;27;45301;-79
2023/11/19 14:39:13;;;;;;;;;0.00;0.00;;;;;20.05;100.00;101311.03;5097051;27;45685;-81
2023/11/19 14:41:39;;;;;;;;;2.25;0.00;;;;;19.83;100.00;101320.22;5096623;27;54628;-80
2023/11/19 14:44:05;;;;;;;;;0.00;0.00;;;;;19.55;100.00;101313.00;5096822;27;69127;-81
2023/11/19 14:46:30;;;;;;;;;0.00;0.00;;;;;19.28;100.00;101299.63;5095218;27;45497;-81
2023/11/19 14:48:56;;;;;;;;;0.00;0.00;;;;;19.17;100.00;101305.50;5097719;27;45364;-81
2023/11/19 14:51:21;;;;;;;;;0.00;0.00;;;;;19.21;100.00;101295.63;5096319;27;67388;-82
2023/11/19 14:53:46;;;;;;;;;0.00;0.00;;;;;19.20;100.00;101299.19;5095954;27;45376;-81
2023/11/19 14:56:12;;;;;;;;;0.00;0.00;;;;;19.25;100.00;101295.34;5096100;27;45308;-81
2023/11/19 14:58:38;;;;;;;;;1.00;1.00;;;;;19.30;100.00;101295.94;5097376;27;45385;-82
2023/11/19 15:01:04;;;;;;;;;0.00;0.00;;;;;19.18;100.00;101299.25;5096418;27;47460;-80
2023/11/19 15:03:30;;;;;;;;;0.00;0.00;;;;;19.01;100.00;101292.28;5097417;27;45960;-81
2023/11/19 15:05:56;;;;;;;;;0.00;0.00;;;;;18.85;100.00;101294.94;5097063;27;45450;-81
2023/11/19 15:08:21;;;;;;;;;0.00;0.00;;;;;18.67;100.00;101307.31;5096935;27;45505;-81
2023/11/19 15:10:46;;;;;;;;;0.00;0.00;;;;;18.73;100.00;101279.75;5094151;27;73917;-82
2023/11/19 15:13:12;;;;;;;;;0.00;0.00;;;;;18.63;100.00;101279.41;5097288;27;45533;-81
2023/11/19 15:15:38;;;;;;;;;0.00;0.00;;;;;18.51;100.00;101291.44;5097113;27;45476;-82
2023/11/19 15:18:04;;;;;;;;;0.00;0.00;;;;;18.40;100.00;101296.44;5096709;27;47149;-80
2023/11/19 15:20:30;;;;;;;;;0.00;0.00;;;;;18.17;100.00;101306.41;5095574;27;45305;-81
2023/11/19 15:22:56;;;;;;;;;0.00;0.00;;;;;18.14;100.00;101297.81;5094910;27;45524;-81
2023/11/19 15:25:22;;;;;;;;;0.00;0.00;;;;;18.01;100.00;101299.38;5095840;27;45444;-82
2023/11/19 15:27:49;;;;;;;;;0.00;0.00;;;;;17.98;100.00;101297.75;5095328;27;46231;-82
2023/11/19 15:30:15;;;;;;;;;0.00;0.00;;;;;17.86;100.00;101293.94;5095269;27;45466;-82
2023/11/19 15:32:42;;;;;;;;;0.00;0.00;;;;;17.82;100.00;101297.63;5095485;27;45328;-81
2023/11/19 15:35:08;;;;;;;;;0.00;0.00;;;;;17.71;100.00;101294.69;5097181;27;45421;-82
2023/11/19 15:37:33;;;;;;;;;0.00;0.00;;;;;17.55;100.00;101298.09;5096411;27;45537;-82
2023/11/19 15:39:59;;;;;;;;;0.00;0.00;;;;;17.44;100.00;101310.94;5094226;27;72826;-82
2023/11/19 15:42:24;;;;;;;;;0.00;0.00;;;;;17.32;100.00;101311.50;5095865;27;69378;-81
2023/11/19 15:44:50;;;;;;;;;0.00;0.00;;;;;17.22;100.00;101305.84;5095507;27;65800;-82
2023/11/19 15:47:15;;;;;;;;;0.00;0.00;;;;;17.13;100.00;101307.13;5096539;27;46412;-83
2023/11/19 15:49:40;;;;;;;;;0.00;0.00;;;;;17.02;100.00;101315.50;5096483;27;45458;-82
2023/11/19 15:52:06;;;;;;;;;0.00;0.00;;;;;16.96;100.00;101318.44;5096646;27;45408;-81
2023/11/19 15:54:31;;;;;;;;;0.00;0.00;;;;;16.91;100.00;101323.06;5094981;27;45362;-82
2023/11/19 15:56:57;;;;;;;;;0.00;0.00;;;;;16.84;100.00;101329.50;5095040;27;73924;-81
2023/11/19 15:59:22;;;;;;;;;0.00;0.00;;;;;16.82;100.00;101329.56;5095850;27;45343;-81
2023/11/19 16:01:47;;;;;;;;;0.00;0.00;;;;;16.86;100.00;101318.94;5096483;27;45365;-80
2023/11/19 16:04:13;;;;;;;;;0.00;0.00;;;;;16.81;100.00;101317.34;5095378;27;45387;-80
2023/11/19 16:06:38;;;;;;;;;0.00;0.00;;;;;16.74;100.00;101322.94;5096026;27;46068;-81
2023/11/19 16:09:04;;;;;;;;;0.00;0.00;;;;;16.67;100.00;101318.88;5093649;27;66608;-82
2023/11/19 16:11:29;;;;;;;;;0.00;0.00;;;;;16.56;100.00;101307.06;5096047;27;68469;-80
2023/11/19 16:13:55;;;;;;;;;0.00;0.00;;;;;16.57;100.00;101321.09;5095145;27;66810;-81
2023/11/19 16:16:20;;;;;;;;;0.00;0.00;;;;;16.54;100.00;101316.81;5117301;27;46359;-81
2023/11/19 16:18:46;;;;;;;;;0.00;0.00;;;;;16.57;100.00;101314.06;5095633;27;69242;-83
2023/11/19 16:21:11;;;;;;;;;0.00;0.00;;;;;16.53;100.00;101322.13;5095227;27;69257;-84
2023/11/19 16:23:36;;;;;;;;;0.00;0.00;;;;;16.56;100.00;101308.84;5095117;27;67126;-82
2023/11/19 16:26:03;;;;;;;;;0.00;0.00;;;;;16.46;100.00;101318.94;5095538;27;66350;-83
2023/11/19 16:28:28;;;;;;;;;0.00;0.00;;;;;16.42;100.00;101326.09;5096345;27;45407;-83
2023/11/19 16:30:53;;;;;;;;;0.00;0.00;;;;;16.44;100.00;101329.50;5095636;27;65025;-83
2023/11/19 16:33:18;;;;;;;;;0.00;0.00;;;;;16.43;100.00;101326.94;5093910;27;69089;-83
2023/11/19 16:35:44;;;;;;;;;0.00;0.00;;;;;16.38;100.00;101328.91;5128481;27;72230;-81
2023/11/19 16:38:09;;;;;;;;;0.00;0.00;;;;;16.35;100.00;101342.19;5093480;27;45610;-81
2023/11/19 16:40:38;;;;;;;;;0.00;0.00;;;;;16.34;100.00;101330.81;5093300;27;66646;-83
2023/11/19 16:43:05;;;;;;;;;0.00;0.00;;;;;16.29;100.00;101329.31;5095764;27;45514;-82
2023/11/19 16:45:31;;;;;;;;;0.00;0.00;;;;;16.31;100.00;101325.72;5093670;27;46077;-82
2023/11/19 16:47:56;;;;;;;;;0.00;0.00;;;;;16.21;100.00;101337.53;5097747;27;45501;-84
2023/11/19 16:50:21;;;;;;;;;0.00;0.00;;;;;16.18;100.00;101335.91;5095254;27;63299;-83
2023/11/19 16:52:47;;;;;;;;;0.00;0.00;;;;;16.08;100.00;101346.84;5094306;27;69200;-83
2023/11/19 16:55:13;;;;;;;;;0.00;0.00;;;;;16.06;100.00;101342.53;5094242;27;45471;-81
2023/11/19 16:57:39;;;;;;;;;4.50;4.50;;;;;16.04;100.00;101338.25;5094329;27;45381;-86
2023/11/19 17:00:07;;;;;;;;;0.00;0.00;;;;;15.97;100.00;101350.78;5095053;27;45285;-85
2023/11/19 17:02:32;;;;;;;;;0.00;0.00;;;;;15.95;100.00;101347.34;5095817;27;45671;-87
2023/11/19 17:04:58;;;;;;;;;0.00;0.00;;;;;15.99;100.00;101345.44;5061987;28;48469;-87
2023/11/19 17:07:25;;;;;;;;;0.00;0.00;;;;;15.89;100.00;101360.75;5054377;28;69146;-89
2023/11/19 17:09:50;;;;;;;;;0.00;0.00;;;;;15.88;100.00;101359.06;5039023;28;45407;-88
2023/11/19 17:12:16;;;;;;;;;0.25;0.00;;;;;15.82;100.00;101351.41;5080396;27;45554;-87
2023/11/19 17:14:52;;;;;;;;;0.00;0.00;;;;;15.79;100.00;101360.28;5081740;27;54219;-89
2023/11/19 17:17:18;;;;;;;;;0.00;0.00;;;;;15.77;100.00;101361.25;5081169;27;45336;-87
2023/11/19 17:19:43;;;;;;;;;0.00;0.00;;;;;15.79;100.00;101355.03;5065712;28;58961;-87
2023/11/19 17:22:09;;;;;;;;;0.00;0.00;;;;;15.89;100.00;101358.13;5088199;27;45481;-87
2023/11/19 17:24:36;;;;;;;;;0.00;0.00;;;;;15.85;100.00;101348.66;5067968;28;47029;-86
2023/11/19 17:27:02;;;;;;;;;2.25;2.25;;;;;15.89;100.00;101352.88;5078091;27;45257;-87
2023/11/19 17:29:29;;;;;;;;;0.00;0.00;;;;;15.92;100.00;101357.16;5082560;27;45391;-87
2023/11/19 17:31:57;;;;;;;;;0.00;0.00;;;;;15.91;100.00;101350.19;5066458;28;45490;-86
2023/11/19 17:34:24;;;;;;;;;0.00;0.00;;;;;15.90;100.00;101356.34;5063167;28;46427;-87
2023/11/19 17:36:50;;;;;;;;;0.75;0.75;;;;;15.85;100.00;101356.53;5062342;28;45569;-87
2023/11/19 17:39:15;;;;;;;;;0.00;0.00;;;;;15.82;100.00;101360.16;5063511;27;45736;-82
2023/11/19 17:41:41;;;;;;;;;0.00;0.00;;;;;15.72;100.00;101364.03;5077370;28;67046;-80
2023/11/19 17:44:06;;;;;;;;;0.00;0.00;;;;;15.72;100.00;101357.94;5080913;27;52220;-83
2023/11/19 17:46:32;;;;;;;;;0.00;0.00;;;;;15.73;100.00;101363.13;5079599;27;45265;-90
2023/11/19 17:48:57;;;;;;;;;0.00;0.00;;;;;15.70;100.00;101363.25;5038414;28;45391;-84
2023/11/19 17:51:22;;;;;;;;;0.00;0.00;;;;;15.65;100.00;101360.78;5077747;27;64838;-83
2023/11/19 17:53:48;;;;;;;;;0.00;0.00;;;;;15.72;100.00;101352.69;5077780;27;47011;-84
2023/11/19 17:56:14;;;;;;;;;0.00;0.00;;;;;15.72;100.00;101353.53;5079767;27;45509;-83
2023/11/19 17:58:40;;;;;;;;;0.00;0.00;;;;;15.71;100.00;101357.06;5081231;27;45327;-85
2023/11/19 18:01:05;;;;;;;;;0.00;0.00;;;;;15.69;100.00;101366.75;5059063;28;68861;-84
2023/11/19 18:03:30;;;;;;;;;0.00;0.00;;;;;15.66;100.00;101367.75;5094628;27;46275;-82
2023/11/19 18:05:56;;;;;;;;;0.00;0.00;;;;;15.66;100.00;101366.91;5097306;27;67136;-83